sensor_id;sensor_type;location;lat;lon;timestamp;P1;durP1;ratioP1;P2;durP2;ratioP2
44126;SDS011;29786;50.798;7.302;2023-04-25T00:00:22;10.6;;;6.4;;
44126;SDS011;29786;50.798;7.302;2023-04-25T00:02:50;10.3;;;5.4;;
44126;SDS011;29786;50.798;7.302;2023-04-25T00:04:04;13.3;;;6.3;;
44126;SDS011;29786;50.798;7.302;2023-04-25T00:05:18;14.6;;;6.5;;
44126;SDS011;29786;50.798;7.302;2023-04-25T00:07:47;12.3;;;6.7;;
44126;SDS011;29786;50.798;7.302;2023-04-25T00:09:01;9.6;;;6.8;;
44126;SDS011;29786;50.798;7.302;2023-04-25T00:10:15;9.8;;;6.6;;
44126;SDS011;29786;50.798;7.302;2023-04-25T00:12:43;15.3;;;6.6;;
44126;SDS011;29786;50.798;7.302;2023-04-25T00:13:57;10.8;;;6.7;;
44126;SDS011;29786;50.798;7.302;2023-04-25T00:15:11;11.7;;;7.3;;
44126;SDS011;29786;50.798;7.302;2023-04-25T00:16:26;14.8;;;6.9;;
44126;SDS011;29786;50.798;7.302;2023-04-25T00:17:40;14.3;;;7.8;;
44126;SDS011;29786;50.798;7.302;2023-04-25T00:18:54;14.9;;;7.3;;
44126;SDS011;29786;50.798;7.302;2023-04-25T00:20:08;16.9;;;6.8;;
44126;SDS011;29786;50.798;7.302;2023-04-25T00:21:22;15.1;;;7;;
44126;SDS011;29786;50.798;7.302;2023-04-25T00:23:52;14.5;;;6.9;;
44126;SDS011;29786;50.798;7.302;2023-04-25T00:25:05;13.1;;;7;;
44126;SDS011;29786;50.798;7.302;2023-04-25T00:26:19;13.2;;;6.9;;
44126;SDS011;29786;50.798;7.302;2023-04-25T00:28:47;14.5;;;7;;
44126;SDS011;29786;50.798;7.302;2023-04-25T00:30:01;18.4;;;7.3;;
44126;SDS011;29786;50.798;7.302;2023-04-25T00:31:15;15.3;;;7;;
44126;SDS011;29786;50.798;7.302;2023-04-25T00:33:43;15;;;7.2;;
44126;SDS011;29786;50.798;7.302;2023-04-25T00:34:58;13.8;;;7.2;;
44126;SDS011;29786;50.798;7.302;2023-04-25T00:36:12;16;;;6.9;;
44126;SDS011;29786;50.798;7.302;2023-04-25T00:38:40;18.2;;;7.6;;
44126;SDS011;29786;50.798;7.302;2023-04-25T00:39:54;18;;;7.1;;
44126;SDS011;29786;50.798;7.302;2023-04-25T00:41:08;15;;;7;;
44126;SDS011;29786;50.798;7.302;2023-04-25T00:42:22;15.8;;;7.5;;
44126;SDS011;29786;50.798;7.302;2023-04-25T00:44:51;16.7;;;7.2;;
44126;SDS011;29786;50.798;7.302;2023-04-25T00:46:05;15.1;;;7.5;;
44126;SDS011;29786;50.798;7.302;2023-04-25T00:47:19;17.2;;;6.8;;
44126;SDS011;29786;50.798;7.302;2023-04-25T00:49:47;11.9;;;6.5;;
44126;SDS011;29786;50.798;7.302;2023-04-25T00:51:01;13.8;;;6.8;;
44126;SDS011;29786;50.798;7.302;2023-04-25T00:52:15;12.8;;;6.3;;
44126;SDS011;29786;50.798;7.302;2023-04-25T00:54:44;15.7;;;8.1;;
44126;SDS011;29786;50.798;7.302;2023-04-25T00:55:58;15.2;;;7.1;;
44126;SDS011;29786;50.798;7.302;2023-04-25T00:57:12;13.5;;;6.5;;
44126;SDS011;29786;50.798;7.302;2023-04-25T00:59:40;14.6;;;7.1;;
44126;SDS011;29786;50.798;7.302;2023-04-25T01:00:54;14.5;;;7;;
44126;SDS011;29786;50.798;7.302;2023-04-25T01:02:08;13.9;;;7;;
44126;SDS011;29786;50.798;7.302;2023-04-25T01:03:23;16.7;;;6.7;;
44126;SDS011;29786;50.798;7.302;2023-04-25T01:05:51;14.5;;;6.9;;
44126;SDS011;29786;50.798;7.302;2023-04-25T01:07:05;15.5;;;6.8;;
44126;SDS011;29786;50.798;7.302;2023-04-25T01:08:19;17.1;;;7.1;;
44126;SDS011;29786;50.798;7.302;2023-04-25T01:10:47;13.7;;;6.9;;
44126;SDS011;29786;50.798;7.302;2023-04-25T01:12:02;18.2;;;7;;
44126;SDS011;29786;50.798;7.302;2023-04-25T01:13:16;19.3;;;6.9;;
44126;SDS011;29786;50.798;7.302;2023-04-25T01:15:44;11;;;6.5;;
44126;SDS011;29786;50.798;7.302;2023-04-25T01:16:58;13.9;;;6.6;;
44126;SDS011;29786;50.798;7.302;2023-04-25T01:18:12;21.4;;;6.9;;
44126;SDS011;29786;50.798;7.302;2023-04-25T01:20:40;18.2;;;6.7;;
44126;SDS011;29786;50.798;7.302;2023-04-25T01:21:55;15.3;;;7.1;;
44126;SDS011;29786;50.798;7.302;2023-04-25T01:23:09;19.9;;;7.4;;
44126;SDS011;29786;50.798;7.302;2023-04-25T01:24:23;13.9;;;7;;
44126;SDS011;29786;50.798;7.302;2023-04-25T01:26:51;15.8;;;7.1;;
44126;SDS011;29786;50.798;7.302;2023-04-25T01:28:05;16.7;;;7.5;;
44126;SDS011;29786;50.798;7.302;2023-04-25T01:29:19;19.2;;;7.6;;
44126;SDS011;29786;50.798;7.302;2023-04-25T01:31:48;16.6;;;7.2;;
44126;SDS011;29786;50.798;7.302;2023-04-25T01:33:02;17.2;;;7.7;;
44126;SDS011;29786;50.798;7.302;2023-04-25T01:34:16;17.9;;;7.3;;
44126;SDS011;29786;50.798;7.302;2023-04-25T01:36:44;16.4;;;6.7;;
44126;SDS011;29786;50.798;7.302;2023-04-25T01:37:58;16.8;;;8.2;;
44126;SDS011;29786;50.798;7.302;2023-04-25T01:39:12;17.1;;;7.8;;
44126;SDS011;29786;50.798;7.302;2023-04-25T01:41:41;18.3;;;7.2;;
44126;SDS011;29786;50.798;7.302;2023-04-25T01:42:55;22.7;;;8.1;;
44126;SDS011;29786;50.798;7.302;2023-04-25T01:44:09;19.6;;;8.6;;
44126;SDS011;29786;50.798;7.302;2023-04-25T01:45:23;22.2;;;7.6;;
44126;SDS011;29786;50.798;7.302;2023-04-25T01:47:51;18.8;;;8.1;;
44126;SDS011;29786;50.798;7.302;2023-04-25T01:49:06;21.5;;;8.5;;
44126;SDS011;29786;50.798;7.302;2023-04-25T01:50:20;22.5;;;8.3;;
44126;SDS011;29786;50.798;7.302;2023-04-25T01:52:48;18.2;;;7.2;;
44126;SDS011;29786;50.798;7.302;2023-04-25T01:54:02;17.7;;;7.5;;
44126;SDS011;29786;50.798;7.302;2023-04-25T01:55:16;20.4;;;7.9;;
44126;SDS011;29786;50.798;7.302;2023-04-25T01:57:44;18.2;;;8.3;;
44126;SDS011;29786;50.798;7.302;2023-04-25T01:58:59;18.7;;;7.1;;
44126;SDS011;29786;50.798;7.302;2023-04-25T02:00:13;15.4;;;7.5;;
44126;SDS011;29786;50.798;7.302;2023-04-25T02:02:41;17.8;;;7.2;;
44126;SDS011;29786;50.798;7.302;2023-04-25T02:03:55;21.8;;;7.7;;
44126;SDS011;29786;50.798;7.302;2023-04-25T02:05:09;18.3;;;7.8;;
44126;SDS011;29786;50.798;7.302;2023-04-25T02:06:23;20.1;;;8.6;;
44126;SDS011;29786;50.798;7.302;2023-04-25T02:08:52;17.8;;;8.2;;
44126;SDS011;29786;50.798;7.302;2023-04-25T02:10:06;19;;;7.6;;
44126;SDS011;29786;50.798;7.302;2023-04-25T02:11:20;18.2;;;7.6;;
44126;SDS011;29786;50.798;7.302;2023-04-25T02:13:48;22.7;;;8.4;;
44126;SDS011;29786;50.798;7.302;2023-04-25T02:15:02;16.4;;;7.9;;
44126;SDS011;29786;50.798;7.302;2023-04-25T02:16:16;18.1;;;7.7;;
44126;SDS011;29786;50.798;7.302;2023-04-25T02:18:45;23.3;;;7.7;;
44126;SDS011;29786;50.798;7.302;2023-04-25T02:19:59;19.3;;;7.6;;
44126;SDS011;29786;50.798;7.302;2023-04-25T02:21:13;21.9;;;8.7;;
44126;SDS011;29786;50.798;7.302;2023-04-25T02:23:41;24.8;;;8.6;;
44126;SDS011;29786;50.798;7.302;2023-04-25T02:24:55;21.5;;;8.5;;
44126;SDS011;29786;50.798;7.302;2023-04-25T02:26:09;15.8;;;8;;
44126;SDS011;29786;50.798;7.302;2023-04-25T02:28:38;19.3;;;8.3;;
44126;SDS011;29786;50.798;7.302;2023-04-25T02:29:52;14.6;;;7.2;;
44126;SDS011;29786;50.798;7.302;2023-04-25T02:31:06;17.1;;;7.6;;
44126;SDS011;29786;50.798;7.302;2023-04-25T02:32:20;23.1;;;8.2;;
44126;SDS011;29786;50.798;7.302;2023-04-25T02:34:48;16.8;;;7.5;;
44126;SDS011;29786;50.798;7.302;2023-04-25T02:36:03;20.1;;;7.7;;
44126;SDS011;29786;50.798;7.302;2023-04-25T02:37:17;17.9;;;7.3;;
44126;SDS011;29786;50.798;7.302;2023-04-25T02:39:45;18.7;;;8.2;;
44126;SDS011;29786;50.798;7.302;2023-04-25T02:40:59;17.2;;;7.8;;
44126;SDS011;29786;50.798;7.302;2023-04-25T02:42:13;18.6;;;7.6;;
44126;SDS011;29786;50.798;7.302;2023-04-25T02:44:41;23.3;;;8.2;;
44126;SDS011;29786;50.798;7.302;2023-04-25T02:45:56;22;;;8.1;;
44126;SDS011;29786;50.798;7.302;2023-04-25T02:47:10;18.5;;;7.8;;
44126;SDS011;29786;50.798;7.302;2023-04-25T02:48:24;19.7;;;7.3;;
44126;SDS011;29786;50.798;7.302;2023-04-25T02:50:52;19.4;;;7.8;;
44126;SDS011;29786;50.798;7.302;2023-04-25T02:52:06;17.3;;;8.4;;
44126;SDS011;29786;50.798;7.302;2023-04-25T02:53:20;17.5;;;7.8;;
44126;SDS011;29786;50.798;7.302;2023-04-25T02:55:49;20.4;;;8.5;;
44126;SDS011;29786;50.798;7.302;2023-04-25T02:57:03;23.5;;;8.2;;
44126;SDS011;29786;50.798;7.302;2023-04-25T02:58:17;21.6;;;8.3;;
44126;SDS011;29786;50.798;7.302;2023-04-25T03:00:45;19.4;;;8;;
44126;SDS011;29786;50.798;7.302;2023-04-25T03:02:00;18.2;;;8;;
44126;SDS011;29786;50.798;7.302;2023-04-25T03:03:14;19.8;;;7.8;;
44126;SDS011;29786;50.798;7.302;2023-04-25T03:05:42;20.3;;;8;;
44126;SDS011;29786;50.798;7.302;2023-04-25T03:06:56;19.5;;;7.8;;
44126;SDS011;29786;50.798;7.302;2023-04-25T03:08:10;18.3;;;8.1;;
44126;SDS011;29786;50.798;7.302;2023-04-25T03:10:38;22.2;;;7.7;;
44126;SDS011;29786;50.798;7.302;2023-04-25T03:11:52;19.7;;;7.5;;
44126;SDS011;29786;50.798;7.302;2023-04-25T03:13:07;18;;;7.6;;
44126;SDS011;29786;50.798;7.302;2023-04-25T03:14:21;22.4;;;7.8;;
44126;SDS011;29786;50.798;7.302;2023-04-25T03:16:49;21.1;;;8.1;;
44126;SDS011;29786;50.798;7.302;2023-04-25T03:18:03;18.7;;;7.9;;
44126;SDS011;29786;50.798;7.302;2023-04-25T03:19:17;22.8;;;8.3;;
44126;SDS011;29786;50.798;7.302;2023-04-25T03:21:46;20.2;;;8.7;;
44126;SDS011;29786;50.798;7.302;2023-04-25T03:23:00;20.2;;;8.4;;
44126;SDS011;29786;50.798;7.302;2023-04-25T03:24:14;20.2;;;7.8;;
44126;SDS011;29786;50.798;7.302;2023-04-25T03:26:42;18;;;8.1;;
44126;SDS011;29786;50.798;7.302;2023-04-25T03:27:56;17.8;;;8.2;;
44126;SDS011;29786;50.798;7.302;2023-04-25T03:29:10;20.3;;;7.8;;
44126;SDS011;29786;50.798;7.302;2023-04-25T03:30:24;20.5;;;8.5;;
44126;SDS011;29786;50.798;7.302;2023-04-25T03:32:53;25.2;;;8.9;;
44126;SDS011;29786;50.798;7.302;2023-04-25T03:34:07;21;;;8.5;;
44126;SDS011;29786;50.798;7.302;2023-04-25T03:35:21;23.5;;;8.4;;
44126;SDS011;29786;50.798;7.302;2023-04-25T03:37:49;19.6;;;8.4;;
44126;SDS011;29786;50.798;7.302;2023-04-25T03:39:03;20.2;;;9.3;;
44126;SDS011;29786;50.798;7.302;2023-04-25T03:40:17;24.6;;;8.6;;
44126;SDS011;29786;50.798;7.302;2023-04-25T03:42:46;20.5;;;8.3;;
44126;SDS011;29786;50.798;7.302;2023-04-25T03:44:00;21.3;;;8.3;;
44126;SDS011;29786;50.798;7.302;2023-04-25T03:45:14;19.5;;;7.6;;
44126;SDS011;29786;50.798;7.302;2023-04-25T03:47:42;27.3;;;9.1;;
44126;SDS011;29786;50.798;7.302;2023-04-25T03:48:56;21.2;;;8.7;;
44126;SDS011;29786;50.798;7.302;2023-04-25T03:50:10;18.3;;;8.4;;
44126;SDS011;29786;50.798;7.302;2023-04-25T03:51:25;20.2;;;7.8;;
44126;SDS011;29786;50.798;7.302;2023-04-25T03:53:53;22.1;;;9;;
44126;SDS011;29786;50.798;7.302;2023-04-25T03:55:07;21.4;;;7.8;;
44126;SDS011;29786;50.798;7.302;2023-04-25T03:56:21;21.7;;;8.1;;
44126;SDS011;29786;50.798;7.302;2023-04-25T03:58:49;24.1;;;8.7;;
44126;SDS011;29786;50.798;7.302;2023-04-25T04:00:04;16.4;;;7.8;;
44126;SDS011;29786;50.798;7.302;2023-04-25T04:01:18;20.5;;;7.8;;
44126;SDS011;29786;50.798;7.302;2023-04-25T04:03:46;19.1;;;7.5;;
44126;SDS011;29786;50.798;7.302;2023-04-25T04:05:00;20;;;7.7;;
44126;SDS011;29786;50.798;7.302;2023-04-25T04:06:14;22.4;;;8.2;;
44126;SDS011;29786;50.798;7.302;2023-04-25T04:08:42;18;;;7.7;;
44126;SDS011;29786;50.798;7.302;2023-04-25T04:09:57;20.1;;;8.2;;
44126;SDS011;29786;50.798;7.302;2023-04-25T04:11:11;16;;;8.5;;
44126;SDS011;29786;50.798;7.302;2023-04-25T04:12:25;25.1;;;8.2;;
44126;SDS011;29786;50.798;7.302;2023-04-25T04:14:53;19.2;;;7.9;;
44126;SDS011;29786;50.798;7.302;2023-04-25T04:16:07;15.7;;;8.3;;
44126;SDS011;29786;50.798;7.302;2023-04-25T04:17:21;19.3;;;8.4;;
44126;SDS011;29786;50.798;7.302;2023-04-25T04:19:50;15.7;;;7.1;;
44126;SDS011;29786;50.798;7.302;2023-04-25T04:21:04;18.6;;;7.9;;
44126;SDS011;29786;50.798;7.302;2023-04-25T04:22:18;20.4;;;7.7;;
44126;SDS011;29786;50.798;7.302;2023-04-25T04:24:46;20.5;;;8.5;;
44126;SDS011;29786;50.798;7.302;2023-04-25T04:26:00;22.1;;;8.3;;
44126;SDS011;29786;50.798;7.302;2023-04-25T04:27:15;20.3;;;8.2;;
44126;SDS011;29786;50.798;7.302;2023-04-25T04:29:43;22.1;;;8.6;;
44126;SDS011;29786;50.798;7.302;2023-04-25T04:30:57;18.3;;;8;;
44126;SDS011;29786;50.798;7.302;2023-04-25T04:32:11;18.7;;;8.3;;
44126;SDS011;29786;50.798;7.302;2023-04-25T04:34:39;20;;;8.4;;
44126;SDS011;29786;50.798;7.302;2023-04-25T04:35:53;23.7;;;8.4;;
44126;SDS011;29786;50.798;7.302;2023-04-25T04:37:08;18.3;;;8.1;;
44126;SDS011;29786;50.798;7.302;2023-04-25T04:38:22;17.5;;;8.2;;
44126;SDS011;29786;50.798;7.302;2023-04-25T04:40:50;20.9;;;8.8;;
44126;SDS011;29786;50.798;7.302;2023-04-25T04:42:04;17;;;8.1;;
44126;SDS011;29786;50.798;7.302;2023-04-25T04:43:18;18.4;;;8.2;;
44126;SDS011;29786;50.798;7.302;2023-04-25T04:45:47;18.5;;;8.1;;
44126;SDS011;29786;50.798;7.302;2023-04-25T04:47:01;20.7;;;8;;
44126;SDS011;29786;50.798;7.302;2023-04-25T04:48:15;22.2;;;8.4;;
44126;SDS011;29786;50.798;7.302;2023-04-25T04:50:43;24.1;;;8.8;;
44126;SDS011;29786;50.798;7.302;2023-04-25T04:51:57;19.1;;;8.4;;
44126;SDS011;29786;50.798;7.302;2023-04-25T04:53:11;19;;;8.4;;
44126;SDS011;29786;50.798;7.302;2023-04-25T04:54:25;17.9;;;7.8;;
44126;SDS011;29786;50.798;7.302;2023-04-25T04:55:40;21.8;;;8.6;;
44126;SDS011;29786;50.798;7.302;2023-04-25T04:56:54;19.4;;;8.6;;
44126;SDS011;29786;50.798;7.302;2023-04-25T04:58:08;17.1;;;7.9;;
44126;SDS011;29786;50.798;7.302;2023-04-25T04:59:22;17.3;;;7.9;;
44126;SDS011;29786;50.798;7.302;2023-04-25T05:01:52;22.6;;;8.8;;
44126;SDS011;29786;50.798;7.302;2023-04-25T05:03:04;21.9;;;8.8;;
44126;SDS011;29786;50.798;7.302;2023-04-25T05:04:19;20.1;;;9;;
44126;SDS011;29786;50.798;7.302;2023-04-25T05:06:47;22.4;;;9.3;;
44126;SDS011;29786;50.798;7.302;2023-04-25T05:08:01;20.2;;;8.4;;
44126;SDS011;29786;50.798;7.302;2023-04-25T05:09:15;20.9;;;9.1;;
44126;SDS011;29786;50.798;7.302;2023-04-25T05:11:43;18.2;;;9.5;;
44126;SDS011;29786;50.798;7.302;2023-04-25T05:12:57;19.8;;;9.6;;
44126;SDS011;29786;50.798;7.302;2023-04-25T05:14:12;21.7;;;9.2;;
44126;SDS011;29786;50.798;7.302;2023-04-25T05:16:40;21.8;;;9.3;;
44126;SDS011;29786;50.798;7.302;2023-04-25T05:17:54;23;;;9.4;;
44126;SDS011;29786;50.798;7.302;2023-04-25T05:19:08;21;;;9.4;;
44126;SDS011;29786;50.798;7.302;2023-04-25T05:20:22;21.2;;;8.7;;
44126;SDS011;29786;50.798;7.302;2023-04-25T05:22:50;18.1;;;9.9;;
44126;SDS011;29786;50.798;7.302;2023-04-25T05:24:05;24.3;;;10.8;;
44126;SDS011;29786;50.798;7.302;2023-04-25T05:25:19;23;;;10.8;;
44126;SDS011;29786;50.798;7.302;2023-04-25T05:27:47;20.4;;;9.3;;
44126;SDS011;29786;50.798;7.302;2023-04-25T05:29:01;22.2;;;9.7;;
44126;SDS011;29786;50.798;7.302;2023-04-25T05:30:15;20.3;;;9.8;;
44126;SDS011;29786;50.798;7.302;2023-04-25T05:32:44;21.3;;;9.2;;
44126;SDS011;29786;50.798;7.302;2023-04-25T05:33:58;22;;;9.1;;
44126;SDS011;29786;50.798;7.302;2023-04-25T05:35:12;19.3;;;9.1;;
44126;SDS011;29786;50.798;7.302;2023-04-25T05:37:40;23.2;;;10;;
44126;SDS011;29786;50.798;7.302;2023-04-25T05:38:54;20.8;;;9.6;;
44126;SDS011;29786;50.798;7.302;2023-04-25T05:40:09;23.9;;;9.4;;
44126;SDS011;29786;50.798;7.302;2023-04-25T05:41:22;25;;;11;;
44126;SDS011;29786;50.798;7.302;2023-04-25T05:43:51;18.1;;;9.6;;
44126;SDS011;29786;50.798;7.302;2023-04-25T05:45:05;22.6;;;10.1;;
44126;SDS011;29786;50.798;7.302;2023-04-25T05:46:19;23.8;;;10.2;;
44126;SDS011;29786;50.798;7.302;2023-04-25T05:48:47;23.6;;;10;;
44126;SDS011;29786;50.798;7.302;2023-04-25T05:50:01;23.3;;;10.1;;
44126;SDS011;29786;50.798;7.302;2023-04-25T05:51:16;24.9;;;10.4;;
44126;SDS011;29786;50.798;7.302;2023-04-25T05:53:44;21.8;;;9.7;;
44126;SDS011;29786;50.798;7.302;2023-04-25T05:54:58;21.5;;;9.4;;
44126;SDS011;29786;50.798;7.302;2023-04-25T05:56:12;26.6;;;10.4;;
44126;SDS011;29786;50.798;7.302;2023-04-25T05:58:40;22.6;;;9.9;;
44126;SDS011;29786;50.798;7.302;2023-04-25T05:59:54;22.6;;;11;;
44126;SDS011;29786;50.798;7.302;2023-04-25T06:01:09;28.1;;;10.4;;
44126;SDS011;29786;50.798;7.302;2023-04-25T06:02:23;21.5;;;9.8;;
44126;SDS011;29786;50.798;7.302;2023-04-25T06:04:51;18.5;;;9.5;;
44126;SDS011;29786;50.798;7.302;2023-04-25T06:06:05;22.3;;;9.7;;
44126;SDS011;29786;50.798;7.302;2023-04-25T06:07:19;19.9;;;9.5;;
44126;SDS011;29786;50.798;7.302;2023-04-25T06:09:48;21;;;9.4;;
44126;SDS011;29786;50.798;7.302;2023-04-25T06:11:02;27.2;;;10.4;;
44126;SDS011;29786;50.798;7.302;2023-04-25T06:12:16;22.3;;;9.9;;
44126;SDS011;29786;50.798;7.302;2023-04-25T06:14:44;24;;;9.4;;
44126;SDS011;29786;50.798;7.302;2023-04-25T06:15:58;31;;;10.7;;
44126;SDS011;29786;50.798;7.302;2023-04-25T06:17:12;26.2;;;11.1;;
44126;SDS011;29786;50.798;7.302;2023-04-25T06:18:27;22.2;;;10.7;;
44126;SDS011;29786;50.798;7.302;2023-04-25T06:19:41;26.8;;;10.5;;
44126;SDS011;29786;50.798;7.302;2023-04-25T06:20:55;22.1;;;10.2;;
44126;SDS011;29786;50.798;7.302;2023-04-25T06:22:09;21.3;;;10.5;;
44126;SDS011;29786;50.798;7.302;2023-04-25T06:23:23;25.4;;;12.3;;
44126;SDS011;29786;50.798;7.302;2023-04-25T06:25:51;24.7;;;11.8;;
44126;SDS011;29786;50.798;7.302;2023-04-25T06:27:05;22.6;;;11.3;;
44126;SDS011;29786;50.798;7.302;2023-04-25T06:28:20;25.9;;;12.2;;
44126;SDS011;29786;50.798;7.302;2023-04-25T06:30:48;26.9;;;11.7;;
44126;SDS011;29786;50.798;7.302;2023-04-25T06:32:02;29.5;;;12.2;;
44126;SDS011;29786;50.798;7.302;2023-04-25T06:33:16;26.7;;;12.5;;
44126;SDS011;29786;50.798;7.302;2023-04-25T06:35:44;24.3;;;12;;
44126;SDS011;29786;50.798;7.302;2023-04-25T06:36:58;27.1;;;12;;
44126;SDS011;29786;50.798;7.302;2023-04-25T06:38:13;31.5;;;11.5;;
44126;SDS011;29786;50.798;7.302;2023-04-25T06:40:41;27.6;;;10.6;;
44126;SDS011;29786;50.798;7.302;2023-04-25T06:41:55;27.5;;;11.3;;
44126;SDS011;29786;50.798;7.302;2023-04-25T06:43:09;24.6;;;9.8;;
44126;SDS011;29786;50.798;7.302;2023-04-25T06:44:23;25.6;;;10.2;;
44126;SDS011;29786;50.798;7.302;2023-04-25T06:46:52;23.5;;;9.9;;
44126;SDS011;29786;50.798;7.302;2023-04-25T06:48:06;23.9;;;9.4;;
44126;SDS011;29786;50.798;7.302;2023-04-25T06:49:20;23.3;;;9.7;;
44126;SDS011;29786;50.798;7.302;2023-04-25T06:51:48;18.3;;;8.9;;
44126;SDS011;29786;50.798;7.302;2023-04-25T06:53:02;25.9;;;9.4;;
44126;SDS011;29786;50.798;7.302;2023-04-25T06:54:16;18.1;;;8.6;;
44126;SDS011;29786;50.798;7.302;2023-04-25T06:56:45;18.9;;;9.3;;
44126;SDS011;29786;50.798;7.302;2023-04-25T06:57:59;24.7;;;8.5;;
44126;SDS011;29786;50.798;7.302;2023-04-25T06:59:13;17.5;;;8.3;;
44126;SDS011;29786;50.798;7.302;2023-04-25T07:01:41;17.9;;;7.8;;
44126;SDS011;29786;50.798;7.302;2023-04-25T07:02:55;19.7;;;8.8;;
44126;SDS011;29786;50.798;7.302;2023-04-25T07:04:09;20;;;7.8;;
44126;SDS011;29786;50.798;7.302;2023-04-25T07:05:24;17.5;;;7.9;;
44126;SDS011;29786;50.798;7.302;2023-04-25T07:07:52;17.2;;;6.5;;
44126;SDS011;29786;50.798;7.302;2023-04-25T07:09:06;19.9;;;7.2;;
44126;SDS011;29786;50.798;7.302;2023-04-25T07:10:20;15.9;;;6.4;;
44126;SDS011;29786;50.798;7.302;2023-04-25T07:12:48;17.2;;;6.9;;
44126;SDS011;29786;50.798;7.302;2023-04-25T07:14:03;20.1;;;6.6;;
44126;SDS011;29786;50.798;7.302;2023-04-25T07:15:17;14.3;;;5.9;;
44126;SDS011;29786;50.798;7.302;2023-04-25T07:17:45;14.8;;;5.9;;
44126;SDS011;29786;50.798;7.302;2023-04-25T07:18:59;19.5;;;6.2;;
44126;SDS011;29786;50.798;7.302;2023-04-25T07:20:13;14.5;;;6.2;;
44126;SDS011;29786;50.798;7.302;2023-04-25T07:22:41;17;;;6.3;;
44126;SDS011;29786;50.798;7.302;2023-04-25T07:23:56;17.7;;;5.8;;
44126;SDS011;29786;50.798;7.302;2023-04-25T07:25:10;16.5;;;6;;
44126;SDS011;29786;50.798;7.302;2023-04-25T07:26:24;14.8;;;4.8;;
44126;SDS011;29786;50.798;7.302;2023-04-25T07:28:52;19.2;;;5.9;;
44126;SDS011;29786;50.798;7.302;2023-04-25T07:30:06;13.1;;;5.2;;
44126;SDS011;29786;50.798;7.302;2023-04-25T07:31:21;17.1;;;5.6;;
44126;SDS011;29786;50.798;7.302;2023-04-25T07:33:49;22.5;;;5.5;;
44126;SDS011;29786;50.798;7.302;2023-04-25T07:35:03;14.6;;;5.8;;
44126;SDS011;29786;50.798;7.302;2023-04-25T07:36:17;15;;;4.9;;
44126;SDS011;29786;50.798;7.302;2023-04-25T07:38:45;16.8;;;5.3;;
44126;SDS011;29786;50.798;7.302;2023-04-25T07:39:59;16.5;;;5;;
44126;SDS011;29786;50.798;7.302;2023-04-25T07:41:13;14.7;;;5.7;;
44126;SDS011;29786;50.798;7.302;2023-04-25T07:43:42;11.6;;;4.7;;
44126;SDS011;29786;50.798;7.302;2023-04-25T07:44:56;17.9;;;5.5;;
44126;SDS011;29786;50.798;7.302;2023-04-25T07:46:10;14;;;5.3;;
44126;SDS011;29786;50.798;7.302;2023-04-25T07:47:24;12.1;;;4.8;;
44126;SDS011;29786;50.798;7.302;2023-04-25T07:49:52;13.6;;;5.3;;
44126;SDS011;29786;50.798;7.302;2023-04-25T07:51:06;14.7;;;5.4;;
44126;SDS011;29786;50.798;7.302;2023-04-25T07:52:21;15.7;;;5.4;;
44126;SDS011;29786;50.798;7.302;2023-04-25T07:54:49;17.9;;;5.6;;
44126;SDS011;29786;50.798;7.302;2023-04-25T07:56:03;17.1;;;5.4;;
44126;SDS011;29786;50.798;7.302;2023-04-25T07:57:17;17.2;;;5;;
44126;SDS011;29786;50.798;7.302;2023-04-25T07:59:45;16.4;;;5.2;;
44126;SDS011;29786;50.798;7.302;2023-04-25T08:01:00;18.1;;;5.3;;
44126;SDS011;29786;50.798;7.302;2023-04-25T08:02:14;16.9;;;5.1;;
44126;SDS011;29786;50.798;7.302;2023-04-25T08:04:42;16.9;;;5.3;;
44126;SDS011;29786;50.798;7.302;2023-04-25T08:05:56;15.1;;;5.1;;
44126;SDS011;29786;50.798;7.302;2023-04-25T08:07:10;14.8;;;4.8;;
44126;SDS011;29786;50.798;7.302;2023-04-25T08:08:24;15.5;;;6.2;;
44126;SDS011;29786;50.798;7.302;2023-04-25T08:10:53;11.6;;;4.9;;
44126;SDS011;29786;50.798;7.302;2023-04-25T08:12:07;18.9;;;5.3;;
44126;SDS011;29786;50.798;7.302;2023-04-25T08:13:21;19.9;;;4.9;;
44126;SDS011;29786;50.798;7.302;2023-04-25T08:15:49;15.7;;;5.6;;
44126;SDS011;29786;50.798;7.302;2023-04-25T08:17:03;14.2;;;5.2;;
44126;SDS011;29786;50.798;7.302;2023-04-25T08:18:17;16.5;;;5.2;;
44126;SDS011;29786;50.798;7.302;2023-04-25T08:20:46;14.1;;;4.9;;
44126;SDS011;29786;50.798;7.302;2023-04-25T08:22:00;20.5;;;4.8;;
44126;SDS011;29786;50.798;7.302;2023-04-25T08:23:14;15.8;;;4.6;;
44126;SDS011;29786;50.798;7.302;2023-04-25T08:25:42;14.3;;;4.1;;
44126;SDS011;29786;50.798;7.302;2023-04-25T08:26:56;12.2;;;4.1;;
44126;SDS011;29786;50.798;7.302;2023-04-25T08:28:10;10.8;;;4.8;;
44126;SDS011;29786;50.798;7.302;2023-04-25T08:30:39;12.7;;;4.3;;
44126;SDS011;29786;50.798;7.302;2023-04-25T08:31:53;13.8;;;4;;
44126;SDS011;29786;50.798;7.302;2023-04-25T08:33:07;11.8;;;4.1;;
44126;SDS011;29786;50.798;7.302;2023-04-25T08:34:21;15.5;;;4.7;;
44126;SDS011;29786;50.798;7.302;2023-04-25T08:36:49;15.2;;;4.6;;
44126;SDS011;29786;50.798;7.302;2023-04-25T08:38:03;17.2;;;4.2;;
44126;SDS011;29786;50.798;7.302;2023-04-25T08:39:18;14.5;;;4.5;;
44126;SDS011;29786;50.798;7.302;2023-04-25T08:41:46;20.7;;;5;;
44126;SDS011;29786;50.798;7.302;2023-04-25T08:43:00;20.1;;;4.8;;
44126;SDS011;29786;50.798;7.302;2023-04-25T08:44:14;11.9;;;3.7;;
44126;SDS011;29786;50.798;7.302;2023-04-25T08:46:42;12.5;;;4.6;;
44126;SDS011;29786;50.798;7.302;2023-04-25T08:47:57;16.5;;;4.7;;
44126;SDS011;29786;50.798;7.302;2023-04-25T08:49:11;13.8;;;4.5;;
44126;SDS011;29786;50.798;7.302;2023-04-25T08:50:25;11.3;;;4.1;;
44126;SDS011;29786;50.798;7.302;2023-04-25T08:52:53;14.6;;;3.9;;
44126;SDS011;29786;50.798;7.302;2023-04-25T08:54:08;13.7;;;4.4;;
44126;SDS011;29786;50.798;7.302;2023-04-25T08:55:21;14.4;;;4.2;;
44126;SDS011;29786;50.798;7.302;2023-04-25T08:57:50;19;;;4.4;;
44126;SDS011;29786;50.798;7.302;2023-04-25T08:59:04;14.7;;;4.6;;
44126;SDS011;29786;50.798;7.302;2023-04-25T09:00:18;15.9;;;4;;
44126;SDS011;29786;50.798;7.302;2023-04-25T09:02:46;11.6;;;4.4;;
44126;SDS011;29786;50.798;7.302;2023-04-25T09:04:00;15.8;;;4.6;;
44126;SDS011;29786;50.798;7.302;2023-04-25T09:05:14;10.4;;;4.6;;
44126;SDS011;29786;50.798;7.302;2023-04-25T09:07:43;10.2;;;4.4;;
44126;SDS011;29786;50.798;7.302;2023-04-25T09:09:01;12.2;;;4.2;;
44126;SDS011;29786;50.798;7.302;2023-04-25T09:10:11;11.1;;;4.6;;
44126;SDS011;29786;50.798;7.302;2023-04-25T09:12:39;14.2;;;4.5;;
44126;SDS011;29786;50.798;7.302;2023-04-25T09:14:09;12.2;;;4.2;;
44126;SDS011;29786;50.798;7.302;2023-04-25T09:15:08;9.2;;;4.4;;
44126;SDS011;29786;50.798;7.302;2023-04-25T09:16:22;11;;;4.7;;
44126;SDS011;29786;50.798;7.302;2023-04-25T09:18:50;11.9;;;4.2;;
44126;SDS011;29786;50.798;7.302;2023-04-25T09:20:06;9.7;;;3.7;;
44126;SDS011;29786;50.798;7.302;2023-04-25T09:21:21;15;;;4.2;;
44126;SDS011;29786;50.798;7.302;2023-04-25T09:23:47;12.2;;;4.1;;
44126;SDS011;29786;50.798;7.302;2023-04-25T09:25:02;12.3;;;4.5;;
44126;SDS011;29786;50.798;7.302;2023-04-25T09:26:17;11.4;;;4.6;;
44126;SDS011;29786;50.798;7.302;2023-04-25T09:28:43;10.9;;;3.8;;
44126;SDS011;29786;50.798;7.302;2023-04-25T09:29:58;11.9;;;4.3;;
44126;SDS011;29786;50.798;7.302;2023-04-25T09:31:11;12.6;;;4.1;;
44126;SDS011;29786;50.798;7.302;2023-04-25T09:32:26;10.2;;;3.8;;
44126;SDS011;29786;50.798;7.302;2023-04-25T09:33:40;8.8;;;4.1;;
44126;SDS011;29786;50.798;7.302;2023-04-25T09:34:55;12.3;;;4.5;;
44126;SDS011;29786;50.798;7.302;2023-04-25T09:36:08;10.4;;;4.3;;
44126;SDS011;29786;50.798;7.302;2023-04-25T09:37:23;11;;;4.8;;
44126;SDS011;29786;50.798;7.302;2023-04-25T09:39:58;8.9;;;4.2;;
44126;SDS011;29786;50.798;7.302;2023-04-25T09:41:04;9.5;;;4.5;;
44126;SDS011;29786;50.798;7.302;2023-04-25T09:42:21;12.1;;;4.3;;
44126;SDS011;29786;50.798;7.302;2023-04-25T09:44:47;10;;;4.8;;
44126;SDS011;29786;50.798;7.302;2023-04-25T09:46:01;9.6;;;4.3;;
44126;SDS011;29786;50.798;7.302;2023-04-25T09:47:15;10.8;;;4.6;;
44126;SDS011;29786;50.798;7.302;2023-04-25T09:49:43;11.6;;;4.5;;